Time;durP1;ratioP1;P1;durP2;ratioP2;P2;SDS_P1;SDS_P2;PMS_P1;PMS_P2;Temp;Humidity;BMP_temperature;BMP_pressure;BME280_temperature;BME280_humidity;BME280_pressure;Samples;Min_cycle;Max_cycle;Signal;HPM_P1;HPM_P2
2022/10/19 00:03:35;;;;;;;59.53;17.10;;;13.60;73.90;;;;;;5089468;28;20194;-92
2022/10/19 00:06:14;;;;;;;52.73;17.30;;;13.50;73.70;;;;;;5086264;28;20451;-82
2022/10/19 00:12:02;;;;;;;49.73;16.97;;;13.50;73.80;;;;;;5091499;28;20390;-80
2022/10/19 00:21:59;;;;;;;41.83;16.03;;;13.40;72.30;;;;;;5082555;28;20384;-92
2022/10/19 00:25:17;;;;;;;66.50;16.00;;;13.40;69.20;;;;;;5089551;28;20464;-92
2022/10/19 00:34:27;;;;;;;57.20;15.87;;;13.20;67.30;;;;;;5087055;28;20487;-92
2022/10/19 00:37:17;;;;;;;49.33;16.47;;;13.20;66.00;;;;;;5081501;28;20433;-80
2022/10/19 00:39:43;;;;;;;50.97;16.00;;;13.20;67.20;;;;;;5094371;28;20212;-80
2022/10/19 00:45:30;;;;;;;73.80;17.97;;;13.10;66.50;;;;;;5084006;28;20224;-80
2022/10/19 00:55:17;;;;;;;48.30;16.20;;;13.00;66.70;;;;;;5075401;28;20385;-92
2022/10/19 01:01:07;;;;;;;60.13;17.00;;;12.90;65.00;;;;;;5081311;28;20969;-92
2022/10/19 01:07:12;;;;;;;50.33;15.30;;;12.80;62.70;;;;;;5075837;28;20463;-81
2022/10/19 01:13:29;;;;;;;55.63;16.77;;;12.70;64.40;;;;;;5076598;28;20438;-80
2022/10/19 01:16:18;;;;;;;66.17;16.70;;;12.70;65.00;;;;;;5085913;28;20476;-80
2022/10/19 01:19:10;;;;;;;69.40;16.30;;;12.60;67.60;;;;;;5081603;28;20892;-80
2022/10/19 01:22:25;;;;;;;62.60;16.80;;;12.70;66.40;;;;;;5077131;28;20512;-92
2022/10/19 01:45:40;;;;;;;62.53;16.80;;;12.50;75.40;;;;;;5051356;28;20396;-80
2022/10/19 01:48:17;;;;;;;68.77;17.00;;;12.50;74.40;;;;;;5050157;28;20468;-80
2022/10/19 02:01:05;;;;;;;64.47;19.07;;;12.50;76.70;;;;;;5064385;28;20442;-92
2022/10/19 02:03:38;;;;;;;59.47;16.20;;;12.40;76.10;;;;;;5086060;28;20420;-92
2022/10/19 02:09:25;;;;;;;51.10;15.70;;;12.40;77.00;;;;;;5088698;28;20411;-80
2022/10/19 02:15:20;;;;;;;69.23;17.07;;;12.40;75.60;;;;;;5079034;28;20332;-80
2022/10/19 02:18:41;;;;;;;66.50;17.27;;;12.40;74.70;;;;;;5082717;28;20487;-80
2022/10/19 02:21:59;;;;;;;58.70;16.43;;;12.40;77.00;;;;;;5083184;28;20513;-80
2022/10/19 02:27:46;;;;;;;59.00;16.57;;;12.50;79.60;;;;;;5080755;28;20835;-80
2022/10/19 02:33:34;;;;;;;65.27;17.33;;;12.60;85.40;;;;;;5086608;28;20201;-80
2022/10/19 02:39:22;;;;;;;65.87;16.77;;;12.70;87.80;;;;;;5093795;28;20261;-92
2022/10/19 02:42:11;;;;;;;70.93;18.07;;;12.70;90.80;;;;;;5079480;28;20417;-92
2022/10/19 02:45:22;;;;;;;73.40;18.47;;;12.80;90.90;;;;;;5089963;28;20416;-92
2022/10/19 02:47:52;;;;;;;64.97;16.80;;;12.90;91.30;;;;;;5087754;28;20947;-92
2022/10/19 02:57:12;;;;;;;58.73;16.67;;;13.00;90.30;;;;;;5077725;28;21041;-92
2022/10/19 03:00:06;;;;;;;51.60;16.47;;;13.00;88.20;;;;;;5077663;28;20401;-92
2022/10/19 03:06:12;;;;;;;38.87;15.60;;;13.10;81.50;;;;;;5077405;28;20824;-92
2022/10/19 03:15:23;;;;;;;64.40;16.97;;;13.10;69.40;;;;;;5093253;28;20411;-80
2022/10/19 03:18:05;;;;;;;49.50;16.07;;;13.00;68.00;;;;;;5087190;28;20428;-81
2022/10/19 03:20:47;;;;;;;47.63;14.90;;;13.00;66.90;;;;;;5092511;28;20788;-80
2022/10/19 03:26:35;;;;;;;50.30;15.50;;;13.00;69.60;;;;;;5076687;28;20544;-92
2022/10/19 03:32:35;;;;;;;33.30;13.60;;;13.00;67.50;;;;;;5085650;28;20232;-92
2022/10/19 03:38:35;;;;;;;49.60;14.50;;;13.00;63.00;;;;;;5096715;28;20407;-80
2022/10/19 03:41:41;;;;;;;44.40;15.40;;;12.90;61.50;;;;;;5095975;28;20946;-81
2022/10/19 03:51:00;;;;;;;55.13;16.20;;;13.00;57.30;;;;;;5084297;28;20465;-80
2022/10/19 04:00:11;;;;;;;43.63;14.50;;;13.00;52.90;;;;;;5092019;28;20415;-80
2022/10/19 04:06:10;;;;;;;46.20;13.63;;;13.00;44.50;;;;;;5075331;28;20484;-81
2022/10/19 04:15:30;;;;;;;50.77;14.60;;;12.90;44.40;;;;;;5084366;28;20428;-78
2022/10/19 04:24:39;;;;;;;51.67;14.60;;;12.90;44.60;;;;;;5076830;28;20442;-78
2022/10/19 04:27:11;;;;;;;45.57;15.83;;;12.80;44.60;;;;;;5075128;28;20556;-78
2022/10/19 04:30:17;;;;;;;35.83;13.50;;;12.80;44.40;;;;;;5087419;28;20613;-78
2022/10/19 04:36:07;;;;;;;44.33;15.50;;;12.70;44.30;;;;;;5075214;28;20820;-78
2022/10/19 04:45:22;;;;;;;50.83;15.93;;;12.60;44.30;;;;;;5084842;28;20499;-78
2022/10/19 04:47:48;;;;;;;55.13;14.57;;;12.70;44.30;;;;;;5093208;28;20481;-78
2022/10/19 04:54:23;;;;;;;42.83;14.10;;;12.70;44.30;;;;;;5075121;28;20262;-78
2022/10/19 04:56:54;;;;;;;42.33;14.10;;;12.70;44.20;;;;;;5074360;28;20935;-78
2022/10/19 05:03:29;;;;;;;42.97;13.43;;;12.60;44.40;;;;;;5078547;28;20420;-78
2022/10/19 05:05:58;;;;;;;34.20;14.10;;;12.50;44.00;;;;;;5090641;28;20509;-79
2022/10/19 05:08:23;;;;;;;51.40;15.67;;;12.50;44.30;;;;;;5083808;28;20422;-78
2022/10/19 05:21:07;;;;;;;43.40;12.87;;;12.50;44.00;;;;;;5083672;28;20408;-78
2022/10/19 05:30:47;;;;;;;34.00;12.87;;;12.40;44.00;;;;;;5083488;28;20929;-79
2022/10/19 05:33:18;;;;;;;37.43;13.60;;;12.40;44.00;;;;;;5081391;28;20441;-78
2022/10/19 05:35:47;;;;;;;36.60;12.87;;;12.50;44.10;;;;;;5080096;28;20445;-78
2022/10/19 05:42:18;;;;;;;38.90;13.27;;;12.60;44.20;;;;;;5075282;28;20451;-78
2022/10/19 05:45:17;;;;;;;31.90;12.90;;;12.60;44.10;;;;;;5073814;28;20975;-78
2022/10/19 05:51:53;;;;;;;26.73;10.97;;;12.70;31.60;;;;;;5083429;28;20492;-78
2022/10/19 05:57:41;;;;;;;29.10;11.97;;;12.70;26.60;;;;;;5081294;28;20434;-78
2022/10/19 06:04:13;;;;;;;29.20;11.23;;;12.80;17.70;;;;;;5076830;28;20884;-79
2022/10/19 06:07:23;;;;;;;39.90;10.40;;;12.80;19.60;;;;;;5076158;28;20546;-78
2022/10/19 06:10:35;;;;;;;29.63;10.97;;;12.80;17.60;;;;;;5084217;28;20501;-78
2022/10/19 06:13:36;;;;;;;18.23;9.70;;;12.80;11.90;;;;;;5084172;28;20416;-78
2022/10/19 06:19:24;;;;;;;25.43;8.83;;;12.80;4.20;;;;;;5073917;28;20428;-78
2022/10/19 06:22:00;;;;;;;24.33;10.40;;;12.60;2.70;;;;;;5082073;28;20387;-78
2022/10/19 06:27:47;;;;;;;23.63;9.80;;;12.60;1.70;;;;;;5080871;28;20417;-79
2022/10/19 06:30:30;;;;;;;24.93;9.87;;;12.50;1.00;;;;;;5079774;28;20416;-77
2022/10/19 06:33:00;;;;;;;31.83;10.07;;;12.50;1.20;;;;;;5077595;28;20175;-78
2022/10/19 06:39:18;;;;;;;19.47;8.90;;;12.50;7.40;;;;;;5079787;28;20477;-77
2022/10/19 06:45:07;;;;;;;17.43;9.13;;;12.60;7.50;;;;;;5081020;28;20424;-78
2022/10/19 06:48:11;;;;;;;15.43;8.50;;;12.70;8.70;;;;;;5086144;28;20450;-80
2022/10/19 06:50:42;;;;;;;22.63;8.53;;;12.90;7.70;;;;;;5084005;28;20417;-79
2022/10/19 06:56:29;;;;;;;16.47;8.53;;;13.00;1.00;;;;;;5088792;28;20489;-79
2022/10/19 07:02:17;;;;;;;16.87;8.13;;;13.10;1.00;;;;;;5091784;28;20722;-84
2022/10/19 07:04:55;;;;;;;20.63;7.40;;;13.20;1.00;;;;;;5082398;28;20412;-84
2022/10/19 07:11:01;;;;;;;16.07;6.87;;;13.10;1.00;;;;;;5089148;28;20387;-82
2022/10/19 07:13:54;;;;;;;13.30;7.73;;;13.20;1.00;;;;;;5086213;28;20434;-84
2022/10/19 07:20:06;;;;;;;18.60;6.67;;;13.20;1.00;;;;;;5082408;28;20462;-83
2022/10/19 07:26:15;;;;;;;18.90;6.67;;;13.10;1.00;;;;;;5076147;28;20495;-78
2022/10/19 07:28:43;;;;;;;11.53;6.43;;;13.20;1.00;;;;;;5076251;28;20925;-78
2022/10/19 07:31:16;;;;;;;25.60;7.20;;;13.30;1.00;;;;;;5077198;28;20453;-77
2022/10/19 07:34:06;;;;;;;15.47;6.80;;;13.30;1.00;;;;;;5086958;28;20822;-78
2022/10/19 07:40:07;;;;;;;11.67;5.80;;;13.50;1.00;;;;;;5078420;28;20958;-77
2022/10/19 07:42:36;;;;;;;10.20;5.60;;;13.60;1.00;;;;;;5086047;28;20424;-79
2022/10/19 07:45:22;;;;;;;13.80;6.23;;;13.60;1.00;;;;;;5075932;28;20393;-77
2022/10/19 07:47:48;;;;;;;20.07;6.77;;;13.60;1.00;;;;;;5076697;28;20488;-79
2022/10/19 07:50:53;;;;;;;15.90;6.20;;;13.70;1.00;;;;;;5076556;28;20460;-83
2022/10/19 07:53:42;;;;;;;18.27;6.37;;;13.70;1.00;;;;;;5095720;28;20656;-82
2022/10/19 07:56:12;;;;;;;10.40;6.07;;;13.80;1.00;;;;;;5080122;28;20409;-82
2022/10/19 07:58:42;;;;;;;8.97;5.60;;;13.80;1.00;;;;;;5077250;28;20447;-81
2022/10/19 08:01:25;;;;;;;11.90;5.60;;;13.90;1.00;;;;;;5077362;28;20428;-82
2022/10/19 08:04:24;;;;;;;10.33;5.90;;;14.00;1.00;;;;;;5079137;28;20927;-82
2022/10/19 08:13:34;;;;;;;8.40;5.33;;;14.10;1.00;;;;;;5085730;28;20466;-85
2022/10/19 08:16:00;;;;;;;16.80;6.20;;;14.20;1.00;;;;;;5084153;28;20421;-79
2022/10/19 08:18:42;;;;;;;8.80;5.40;;;14.30;1.00;;;;;;5090448;28;20931;-81
2022/10/19 08:21:08;;;;;;;7.53;4.97;;;14.30;1.00;;;;;;5077602;28;20672;-81
2022/10/19 08:27:06;;;;;;;18.63;6.10;;;14.20;1.00;;;;;;5083588;28;20601;-81
2022/10/19 08:30:00;;;;;;;16.00;6.87;;;14.20;1.00;;;;;;5079287;28;21016;-81
2022/10/19 08:35:54;;;;;;;16.50;6.73;;;14.00;1.00;;;;;;5077961;28;20419;-81
2022/10/19 08:38:48;;;;;;;9.43;5.53;;;13.90;1.00;;;;;;5087920;28;20428;-81
2022/10/19 08:41:30;;;;;;;9.63;6.13;;;13.90;1.00;;;;;;5082270;28;20462;-77
2022/10/19 08:44:17;;;;;;;10.27;5.80;;;13.90;1.00;;;;;;5079045;28;20446;-79
2022/10/19 08:50:18;;;;;;;13.87;6.27;;;13.90;1.00;;;;;;5090130;28;20415;-77
2022/10/19 09:00:11;;;;;;;19.23;5.77;;;13.90;1.00;;;;;;5082301;28;20402;-81
2022/10/19 09:06:23;;;;;;;10.07;5.00;;;13.90;1.00;;;;;;5081041;28;20520;-81
2022/10/19 09:08:55;;;;;;;11.10;6.33;;;14.00;1.00;;;;;;5075772;28;20422;-82
2022/10/19 09:12:06;;;;;;;11.20;6.10;;;13.90;1.00;;;;;;5076945;28;20428;-77
2022/10/19 09:14:46;;;;;;;13.57;5.57;;;14.00;1.00;;;;;;5079022;28;20428;-78
2022/10/19 09:17:15;;;;;;;16.50;5.73;;;14.00;1.00;;;;;;5080654;28;20437;-77
2022/10/19 09:23:48;;;;;;;10.60;5.37;;;14.20;1.00;;;;;;5079235;28;20441;-77
2022/10/19 09:26:22;;;;;;;11.50;5.63;;;14.40;1.00;;;;;;5082476;28;20481;-78
2022/10/19 09:29:23;;;;;;;15.43;5.50;;;14.50;1.00;;;;;;5083383;28;20768;-76
2022/10/19 09:31:53;;;;;;;12.50;5.67;;;14.60;1.00;;;;;;5073857;28;20428;-76
2022/10/19 09:34:49;;;;;;;12.43;6.10;;;14.70;1.00;;;;;;5075983;28;20981;-77
2022/10/19 09:37:49;;;;;;;19.47;6.20;;;14.70;1.00;;;;;;5076808;28;20924;-79
2022/10/19 09:40:26;;;;;;;14.50;5.97;;;14.80;1.00;;;;;;5079720;28;20531;-75
2022/10/19 09:43:18;;;;;;;11.40;5.93;;;14.90;1.00;;;;;;5084968;28;20490;-77
2022/10/19 09:46:03;;;;;;;13.77;5.80;;;14.90;1.00;;;;;;5075555;28;20480;-77
2022/10/19 09:48:58;;;;;;;9.70;5.80;;;15.00;1.00;;;;;;5078100;28;20440;-77
2022/10/19 09:51:49;;;;;;;20.53;7.00;;;15.00;1.00;;;;;;5075505;28;20432;-77
2022/10/19 09:54:31;;;;;;;11.53;6.17;;;15.00;1.00;;;;;;5077610;28;20546;-78
2022/10/19 09:57:20;;;;;;;12.33;6.10;;;15.10;1.00;;;;;;5078905;28;20398;-77
2022/10/19 10:00:30;;;;;;;12.30;6.23;;;15.10;1.00;;;;;;5075353;28;20403;-75
2022/10/19 10:03:01;;;;;;;14.03;5.97;;;15.10;1.00;;;;;;5083958;28;20411;-75
2022/10/19 10:05:32;;;;;;;11.37;6.00;;;15.30;1.00;;;;;;5074953;28;20439;-75
2022/10/19 10:07:58;;;;;;;17.53;6.17;;;15.40;1.00;;;;;;5086711;28;20410;-74
2022/10/19 10:11:00;;;;;;;17.00;6.50;;;15.50;1.00;;;;;;5080489;28;20461;-75
2022/10/19 10:13:41;;;;;;;14.37;7.13;;;15.60;1.00;;;;;;4987253;28;20405;-75
2022/10/19 10:16:16;;;;;;;17.03;5.97;;;15.60;1.00;;;;;;4999186;28;20439;-75
2022/10/19 10:19:10;;;;;;;9.07;5.67;;;15.50;1.00;;;;;;5003978;28;20424;-75
2022/10/19 10:21:54;;;;;;;9.37;5.40;;;15.60;1.00;;;;;;5006124;28;20407;-76
2022/10/19 10:24:27;;;;;;;13.10;5.53;;;15.70;1.00;;;;;;4988511;28;20433;-76
2022/10/19 10:27:44;;;;;;;16.80;5.90;;;15.80;1.00;;;;;;4997133;28;20826;-79
2022/10/19 10:30:17;;;;;;;13.73;5.80;;;15.90;1.00;;;;;;4984029;28;20403;-78
2022/10/19 10:32:53;;;;;;;122.33;67.37;;;16.00;1.00;;;;;;4992125;28;20415;-77
2022/10/19 10:35:24;;;;;;;25.53;14.33;;;16.30;1.00;;;;;;5009067;28;20435;-76
2022/10/19 10:38:25;;;;;;;49.13;24.73;;;16.60;1.00;;;;;;4987232;28;20746;-77
2022/10/19 10:41:31;;;;;;;16.50;9.27;;;16.90;1.00;;;;;;5011050;28;20411;-79
2022/10/19 10:44:45;;;;;;;21.63;10.10;;;17.00;1.00;;;;;;4996790;28;20440;-82
2022/10/19 10:47:25;;;;;;;21.90;7.63;;;17.10;1.00;;;;;;5007838;28;20515;-77
2022/10/19 10:50:02;;;;;;;13.00;7.37;;;17.20;1.00;;;;;;5030401;28;21022;-77
2022/10/19 10:52:33;;;;;;;17.43;7.07;;;17.20;1.00;;;;;;5084243;28;20734;-77
2022/10/19 10:58:50;;;;;;;17.13;8.77;;;17.40;1.00;;;;;;5071128;28;20437;-77
2022/10/19 11:01:26;;;;;;;62.97;34.67;;;17.60;1.00;;;;;;5072964;28;20460;-77
2022/10/19 11:04:03;;;;;;;26.10;10.10;;;17.90;1.00;;;;;;5082695;28;20391;-77
2022/10/19 11:07:00;;;;;;;18.27;7.23;;;18.10;1.00;;;;;;5073215;28;20437;-77
2022/10/19 11:09:57;;;;;;;21.03;8.30;;;18.10;1.00;;;;;;5084880;28;20535;-77
2022/10/19 11:12:57;;;;;;;9.80;5.43;;;18.20;1.00;;;;;;5013078;28;20584;-77
2022/10/19 11:15:56;;;;;;;9.57;5.50;;;18.30;1.00;;;;;;4994662;28;20453;-77
2022/10/19 11:18:41;;;;;;;11.53;5.53;;;18.40;1.00;;;;;;4949362;28;20442;-76
2022/10/19 11:21:17;;;;;;;19.77;6.00;;;18.60;1.00;;;;;;4950391;28;20429;-77
2022/10/19 11:24:19;;;;;;;19.57;6.87;;;18.70;1.00;;;;;;4934612;28;20933;-79
2022/10/19 11:30:20;;;;;;;19.20;10.27;;;19.00;1.00;;;;;;4938367;28;20529;-77
2022/10/19 11:33:00;;;;;;;20.83;5.73;;;19.10;1.00;;;;;;4953588;28;20440;-77
2022/10/19 11:35:51;;;;;;;16.00;6.77;;;19.30;1.00;;;;;;4962737;28;20921;-75
2022/10/19 11:38:47;;;;;;;11.33;6.90;;;19.20;1.00;;;;;;4949030;28;21034;-76
2022/10/19 11:41:54;;;;;;;18.37;7.13;;;19.20;1.00;;;;;;4947237;29;20460;-77
2022/10/19 11:45:01;;;;;;;274.90;132.93;;;19.20;1.00;;;;;;4948939;28;20453;-77
2022/10/19 11:47:58;;;;;;;11.07;7.17;;;19.10;1.00;;;;;;4932236;29;21038;-77
2022/10/19 11:51:25;;;;;;;31.43;17.80;;;19.10;1.00;;;;;;5009372;28;21109;-77
2022/10/19 11:54:34;;;;;;;81.57;39.30;;;19.10;1.00;;;;;;4966774;28;20411;-78
2022/10/19 11:57:22;;;;;;;10.23;5.20;;;19.10;1.00;;;;;;5006719;28;20455;-77
2022/10/19 12:00:15;;;;;;;19.20;9.63;;;19.10;1.00;;;;;;5006364;28;20953;-77
2022/10/19 12:03:27;;;;;;;18.50;6.40;;;19.10;1.00;;;;;;4985573;28;20426;-77
2022/10/19 12:06:13;;;;;;;12.73;5.20;;;19.00;1.00;;;;;;4997576;28;20531;-77
2022/10/19 12:12:35;;;;;;;12.37;5.30;;;19.10;1.00;;;;;;5041779;28;20427;-77
2022/10/19 12:15:54;;;;;;;19.53;10.40;;;19.00;1.00;;;;;;5080941;28;20391;-77
2022/10/19 12:18:46;;;;;;;15.77;6.73;;;18.90;1.00;;;;;;5034980;28;20499;-76
2022/10/19 12:24:42;;;;;;;29.60;12.83;;;18.90;1.00;;;;;;4949507;28;20526;-76
2022/10/19 12:27:49;;;;;;;;;;;;;;;;;;;;;
2022/10/19 12:30:25;;;;;;;43.50;21.03;;;19.00;1.00;;;;;;4971761;28;20441;-77
2022/10/19 12:33:05;;;;;;;51.60;25.80;;;19.00;1.00;;;;;;4969605;28;20446;-77
2022/10/19 12:35:39;;;;;;;57.13;27.30;;;19.10;1.00;;;;;;4977685;28;20442;-76
2022/10/19 12:41:55;;;;;;;9.27;5.47;;;19.40;1.00;;;;;;4926645;29;20574;-76
2022/10/19 12:44:34;;;;;;;7.07;5.27;;;19.40;1.00;;;;;;4923362;29;20993;-76
2022/10/19 12:47:21;;;;;;;10.70;6.07;;;19.20;1.00;;;;;;4933641;29;20982;-76
2022/10/19 12:49:51;;;;;;;7.53;4.87;;;19.40;1.00;;;;;;4922443;29;20413;-76
2022/10/19 12:52:47;;;;;;;13.00;5.10;;;19.50;1.00;;;;;;4916274;29;20434;-76
2022/10/19 12:55:33;;;;;;;7.83;4.53;;;19.60;1.00;;;;;;4945876;29;20422;-76
2022/10/19 12:58:32;;;;;;;30.40;16.13;;;19.50;1.00;;;;;;4954575;29;20407;-76
2022/10/19 13:01:05;;;;;;;35.53;11.10;;;19.50;1.00;;;;;;4980837;28;20438;-75
2022/10/19 13:03:46;;;;;;;12.00;6.40;;;19.50;1.00;;;;;;5033149;28;20934;-76
2022/10/19 13:06:29;;;;;;;18.43;7.13;;;19.40;1.00;;;;;;5033382;28;20469;-76
2022/10/19 13:08:59;;;;;;;8.27;4.70;;;19.40;1.00;;;;;;5041176;28;20871;-76
2022/10/19 13:11:33;;;;;;;11.73;5.07;;;19.40;1.00;;;;;;5034820;28;20534;-76
2022/10/19 13:14:26;;;;;;;16.53;9.90;;;19.50;1.00;;;;;;5049268;28;20438;-76
2022/10/19 13:17:33;;;;;;;17.10;8.50;;;19.40;1.00;;;;;;5040590;28;20424;-76
2022/10/19 13:20:27;;;;;;;5.00;4.50;;;19.20;1.00;;;;;;5091830;28;20892;-76
2022/10/19 13:23:05;;;;;;;9.70;6.77;;;19.10;1.00;;;;;;5090211;28;20418;-75
2022/10/19 13:25:44;;;;;;;191.90;96.00;;;19.00;1.00;;;;;;5079065;28;20447;-75
2022/10/19 13:28:11;;;;;;;9.60;5.20;;;18.90;1.00;;;;;;5077542;28;20450;-75
2022/10/19 13:30:41;;;;;;;7.40;4.00;;;18.70;1.00;;;;;;5075118;28;20553;-76
2022/10/19 13:33:28;;;;;;;7.37;3.80;;;18.70;1.00;;;;;;5085637;28;20452;-76
2022/10/19 13:36:01;;;;;;;6.27;4.30;;;18.60;1.00;;;;;;5075404;28;20439;-76
2022/10/19 13:38:35;;;;;;;7.23;4.47;;;18.50;1.00;;;;;;5085775;28;20456;-76
2022/10/19 13:41:26;;;;;;;6.63;4.17;;;18.40;1.00;;;;;;5074349;28;20416;-76
2022/10/19 13:44:18;;;;;;;73.73;36.20;;;18.40;1.00;;;;;;5082732;28;20413;-75
2022/10/19 13:46:53;;;;;;;464.77;273.97;;;18.30;1.00;;;;;;5080246;28;20476;-76
2022/10/19 13:50:01;;;;;;;176.07;98.33;;;18.30;1.00;;;;;;5077248;28;20454;-74
2022/10/19 13:52:57;;;;;;;10.63;5.93;;;18.30;1.00;;;;;;5080960;28;20413;-76
2022/10/19 13:59:15;;;;;;;55.47;29.03;;;18.30;1.00;;;;;;5081898;28;20461;-78
2022/10/19 14:02:25;;;;;;;32.27;16.13;;;18.30;1.00;;;;;;5091725;28;20428;-82
2022/10/19 14:05:19;;;;;;;56.80;33.87;;;18.50;1.00;;;;;;5081766;28;20959;-82
2022/10/19 14:08:11;;;;;;;149.43;68.90;;;18.60;1.00;;;;;;5083240;28;20538;-83
2022/10/19 14:11:18;;;;;;;44.93;23.50;;;18.80;1.00;;;;;;5077742;28;20443;-76
2022/10/19 14:14:10;;;;;;;409.80;206.07;;;18.90;1.00;;;;;;5074652;28;20906;-75
2022/10/19 14:16:59;;;;;;;153.07;71.40;;;18.60;1.00;;;;;;5064564;28;20426;-75
2022/10/19 14:19:28;;;;;;;220.03;96.70;;;18.70;1.00;;;;;;5053353;28;20924;-75
2022/10/19 14:21:56;;;;;;;165.57;74.10;;;18.80;1.00;;;;;;5068420;28;20425;-74
2022/10/19 14:24:43;;;;;;;31.77;15.70;;;18.80;1.00;;;;;;5070259;28;20427;-75
2022/10/19 14:27:23;;;;;;;96.63;52.30;;;19.00;1.00;;;;;;5057656;28;21084;-75
2022/10/19 14:29:53;;;;;;;22.83;8.33;;;18.90;1.00;;;;;;5061192;28;20955;-74
2022/10/19 14:32:34;;;;;;;13.03;6.07;;;19.00;1.00;;;;;;5051929;28;20549;-76
2022/10/19 14:35:46;;;;;;;22.27;14.57;;;19.10;1.00;;;;;;5060018;28;20432;-75
2022/10/19 14:41:35;;;;;;;8.20;3.80;;;19.00;1.00;;;;;;5064198;28;20404;-77
2022/10/19 14:44:40;;;;;;;11.37;4.23;;;19.00;1.00;;;;;;5069955;28;20529;-77
2022/10/19 14:47:26;;;;;;;3.47;3.23;;;18.90;1.00;;;;;;4999892;28;20532;-75
2022/10/19 14:49:52;;;;;;;271.90;124.23;;;18.80;1.00;;;;;;5002679;28;20434;-80
2022/10/19 14:52:36;;;;;;;98.43;45.43;;;18.80;1.00;;;;;;4997861;28;20430;-77
2022/10/19 14:55:10;;;;;;;67.27;33.33;;;18.60;1.00;;;;;;5030121;28;20916;-77
2022/10/19 14:58:19;;;;;;;108.90;55.70;;;18.50;1.00;;;;;;5023849;28;20423;-78
2022/10/19 15:01:02;;;;;;;31.00;19.50;;;18.30;1.00;;;;;;5025318;28;20442;-77
2022/10/19 15:10:27;;;;;;;8.37;5.30;;;17.90;1.00;;;;;;5014416;28;21005;-75
2022/10/19 15:13:05;;;;;;;11.13;6.50;;;17.80;1.00;;;;;;5026210;28;20411;-76
2022/10/19 15:15:34;;;;;;;13.67;8.50;;;17.70;1.00;;;;;;5031268;28;20436;-76
2022/10/19 15:17:59;;;;;;;8.07;4.93;;;17.70;1.00;;;;;;5021107;28;20512;-76
2022/10/19 15:20:36;;;;;;;29.73;20.93;;;17.70;1.00;;;;;;5022549;28;20848;-76
2022/10/19 15:23:43;;;;;;;5.40;4.57;;;17.50;1.00;;;;;;5030975;28;20678;-75
2022/10/19 15:26:19;;;;;;;9.20;7.60;;;17.40;1.00;;;;;;5090180;28;20420;-75
2022/10/19 15:29:25;;;;;;;14.13;7.90;;;17.20;1.00;;;;;;5091840;28;20420;-75
2022/10/19 15:32:37;;;;;;;11.97;8.73;;;17.10;1.00;;;;;;5076571;28;20401;-76
2022/10/19 15:35:31;;;;;;;23.43;14.90;;;17.00;1.00;;;;;;5091474;28;20486;-74
2022/10/19 15:38:17;;;;;;;8.53;6.97;;;16.80;1.00;;;;;;5087916;28;20435;-76
2022/10/19 15:44:25;;;;;;;7.30;5.40;;;16.60;1.00;;;;;;5085641;28;20425;-76
2022/10/19 15:47:19;;;;;;;6.97;5.40;;;16.50;1.00;;;;;;5083220;28;21304;-76
2022/10/19 15:49:45;;;;;;;21.03;11.90;;;16.50;1.00;;;;;;5083065;28;20433;-76
2022/10/19 15:52:55;;;;;;;13.77;6.87;;;16.40;1.00;;;;;;5082374;28;20427;-75
2022/10/19 15:55:43;;;;;;;5.80;4.77;;;16.40;1.00;;;;;;5078916;28;20454;-75
2022/10/19 15:58:14;;;;;;;7.63;5.57;;;16.40;1.00;;;;;;5096155;28;20412;-76
2022/10/19 16:01:25;;;;;;;20.93;9.80;;;16.20;1.00;;;;;;5095340;28;20421;-77
2022/10/19 16:04:31;;;;;;;13.10;6.90;;;16.20;1.00;;;;;;5082223;28;20418;-76
2022/10/19 16:07:15;;;;;;;29.23;15.77;;;16.10;1.00;;;;;;5077250;28;20454;-77
2022/10/19 16:09:40;;;;;;;15.67;6.23;;;16.00;1.00;;;;;;5076857;28;20438;-75
2022/10/19 16:12:10;;;;;;;17.23;7.57;;;15.80;1.00;;;;;;5075364;28;20877;-75
2022/10/19 16:14:38;;;;;;;11.03;5.80;;;15.70;1.00;;;;;;5085222;28;20264;-75
2022/10/19 16:17:11;;;;;;;10.63;5.70;;;15.60;1.00;;;;;;5081559;28;20899;-75
2022/10/19 16:19:37;;;;;;;11.43;6.80;;;15.50;1.00;;;;;;5076228;28;20413;-74
2022/10/19 16:22:08;;;;;;;15.77;6.00;;;15.50;1.00;;;;;;5085745;28;20387;-74
2022/10/19 16:24:50;;;;;;;8.00;6.13;;;15.30;1.00;;;;;;5086206;28;20201;-75
2022/10/19 16:27:32;;;;;;;10.80;6.27;;;15.20;1.00;;;;;;5078276;28;20954;-75
2022/10/19 16:36:44;;;;;;;12.63;6.60;;;14.80;1.00;;;;;;5094358;28;20458;-76
2022/10/19 16:39:10;;;;;;;13.93;6.70;;;14.70;1.00;;;;;;5082694;28;20989;-74
2022/10/19 16:41:35;;;;;;;13.93;6.57;;;14.50;1.00;;;;;;5085393;28;20426;-75
2022/10/19 16:44:02;;;;;;;18.63;7.33;;;14.50;1.00;;;;;;5084264;28;20654;-76
2022/10/19 16:46:27;;;;;;;12.03;6.37;;;14.40;1.00;;;;;;5075389;28;21543;-74
2022/10/19 16:48:56;;;;;;;16.27;6.70;;;14.30;1.00;;;;;;5074301;28;20448;-75
2022/10/19 16:51:31;;;;;;;13.50;6.23;;;14.20;1.00;;;;;;5080817;28;20768;-76
2022/10/19 16:54:26;;;;;;;25.57;6.70;;;14.10;1.00;;;;;;5085566;28;20540;-77
2022/10/19 16:56:56;;;;;;;11.30;6.40;;;14.00;1.00;;;;;;5093097;28;20408;-76
2022/10/19 17:09:32;;;;;;;12.93;6.80;;;13.40;1.00;;;;;;5080172;28;20431;-76
2022/10/19 17:12:02;;;;;;;29.00;8.20;;;13.20;1.00;;;;;;5073872;28;20425;-86
2022/10/19 17:17:50;;;;;;;16.77;8.30;;;13.10;1.00;;;;;;5086445;28;20829;-78
2022/10/19 17:20:16;;;;;;;14.10;7.93;;;13.00;1.00;;;;;;5078561;28;20437;-80
2022/10/19 17:26:44;;;;;;;23.73;9.87;;;12.80;1.00;;;;;;5079688;28;20971;-78
2022/10/19 17:29:49;;;;;;;29.40;9.30;;;12.70;1.00;;;;;;5086874;28;20408;-79
2022/10/19 17:32:20;;;;;;;21.27;9.50;;;12.60;1.00;;;;;;5084367;28;20473;-78
2022/10/19 17:35:25;;;;;;;17.97;8.93;;;12.50;1.00;;;;;;5075126;28;20927;-79
2022/10/19 17:38:02;;;;;;;24.77;8.90;;;12.50;1.00;;;;;;5087560;28;20504;-79
2022/10/19 17:40:32;;;;;;;18.57;9.60;;;12.40;1.00;;;;;;5084175;28;20405;-76
2022/10/19 17:42:58;;;;;;;24.00;9.97;;;12.30;1.00;;;;;;5081056;28;20912;-76
2022/10/19 17:45:23;;;;;;;17.93;10.00;;;12.20;1.00;;;;;;5077777;28;20400;-74
2022/10/19 17:47:49;;;;;;;16.50;10.03;;;12.20;1.00;;;;;;5082425;28;20206;-74
2022/10/19 17:50:15;;;;;;;21.13;9.67;;;12.20;1.00;;;;;;5076845;28;20175;-75
2022/10/19 17:52:50;;;;;;;21.50;11.10;;;12.10;1.00;;;;;;5074970;28;20566;-77
2022/10/19 17:55:35;;;;;;;23.00;11.30;;;12.10;1.00;;;;;;5084020;28;20578;-77
2022/10/19 17:58:34;;;;;;;24.67;13.03;;;12.00;1.00;;;;;;5073996;28;20437;-77
2022/10/19 18:08:05;;;;;;;25.80;11.90;;;11.90;1.00;;;;;;5084328;28;20475;-91
2022/10/19 18:13:58;;;;;;;40.57;14.63;;;11.70;1.00;;;;;;5079215;28;20520;-86
2022/10/19 18:17:07;;;;;;;26.17;12.33;;;11.70;1.00;;;;;;5077666;28;20437;-89
2022/10/19 18:19:44;;;;;;;23.10;12.70;;;11.70;1.00;;;;;;5088407;28;20429;-86
2022/10/19 18:25:36;;;;;;;24.10;12.53;;;11.50;1.00;;;;;;5079471;28;20461;-85
2022/10/19 18:28:38;;;;;;;22.27;13.27;;;11.50;1.00;;;;;;5072482;28;20428;-85
2022/10/19 18:31:29;;;;;;;23.80;13.43;;;11.50;2.30;;;;;;5075065;28;20429;-86
2022/10/19 18:34:04;;;;;;;36.03;12.70;;;11.50;3.00;;;;;;5087177;28;20914;-84
2022/10/19 18:39:51;;;;;;;25.63;12.90;;;11.40;5.70;;;;;;5085798;28;20465;-83
2022/10/19 18:42:17;;;;;;;27.90;13.03;;;11.40;7.40;;;;;;5076432;28;20425;-81
2022/10/19 18:45:23;;;;;;;29.80;13.73;;;11.40;10.00;;;;;;5092998;28;20554;-80
2022/10/19 18:47:56;;;;;;;22.83;11.80;;;11.40;10.60;;;;;;5082005;28;20234;-79
2022/10/19 18:53:44;;;;;;;25.33;11.67;;;11.40;16.50;;;;;;5089666;28;20435;-79
2022/10/19 18:57:01;;;;;;;24.23;12.53;;;11.30;19.00;;;;;;5080954;28;20439;-80
2022/10/19 18:59:32;;;;;;;29.53;13.13;;;11.30;20.70;;;;;;5075703;28;20929;-79
2022/10/19 19:02:25;;;;;;;33.13;13.60;;;11.30;19.70;;;;;;5073565;28;20471;-79
2022/10/19 19:05:14;;;;;;;25.07;12.63;;;11.30;21.10;;;;;;5072948;28;20424;-80
2022/10/19 19:14:25;;;;;;;32.27;14.80;;;11.20;29.40;;;;;;5076514;28;20848;-78
2022/10/19 19:20:17;;;;;;;48.30;15.37;;;11.20;42.90;;;;;;5092780;28;20415;-80
2022/10/19 19:26:33;;;;;;;35.70;14.70;;;11.20;43.10;;;;;;5078772;28;20455;-80
2022/10/19 19:29:08;;;;;;;39.13;15.57;;;11.20;42.90;;;;;;5082685;28;20998;-80
2022/10/19 19:31:44;;;;;;;23.17;12.77;;;11.20;42.90;;;;;;5088465;28;20541;-80
2022/10/19 19:34:10;;;;;;;26.30;12.63;;;11.20;42.90;;;;;;5080889;28;20405;-80
2022/10/19 19:37:07;;;;;;;31.00;13.50;;;11.20;43.10;;;;;;5079160;28;20420;-80
2022/10/19 19:39:38;;;;;;;25.33;12.87;;;11.20;43.00;;;;;;5096291;28;20404;-80
2022/10/19 19:45:25;;;;;;;27.90;12.53;;;11.20;42.90;;;;;;5077263;28;20393;-85
2022/10/19 19:48:13;;;;;;;26.57;13.37;;;11.20;43.00;;;;;;5087605;28;20830;-86
2022/10/19 19:50:45;;;;;;;23.20;10.97;;;11.20;43.00;;;;;;5087754;28;20186;-84
2022/10/19 19:56:55;;;;;;;30.37;15.07;;;12.80;92.30;;;;;;5091685;28;20461;-84
2022/10/19 20:02:43;;;;;;;16.30;10.03;;;13.30;21.70;;;;;;5083867;28;20522;-84